Time;durP1;ratioP1;P1;durP2;ratioP2;P2;SDS_P1;SDS_P2;PMS_P1;PMS_P2;Temp;Humidity;BMP_temperature;BMP_pressure;BME280_temperature;BME280_humidity;BME280_pressure;Samples;Min_cycle;Max_cycle;Signal;HPM_P1;HPM_P2
2021/10/06 00:01:49;;;;;;;0.05;0.03;;;;;;;26.75;36.21;96445.81;5028840;28;20783;-33
2021/10/06 00:04:14;;;;;;;0.10;0.10;;;;;;;26.76;36.17;96460.63;5031846;28;20032;-37
2021/10/06 00:06:40;;;;;;;0.25;0.10;;;;;;;26.75;36.13;96453.69;5025503;28;20033;-37
2021/10/06 00:09:06;;;;;;;0.00;0.00;;;;;;;26.74;36.11;96452.00;5030262;28;20052;-35
2021/10/06 00:11:32;;;;;;;0.20;0.10;;;;;;;26.74;36.20;96446.75;5014274;28;20533;-39
2021/10/06 00:13:57;;;;;;;0.10;0.10;;;;;;;26.74;36.22;96457.28;5028213;28;20033;-36
2021/10/06 00:16:23;;;;;;;0.05;0.05;;;;;;;26.73;36.11;96461.66;5013382;28;20025;-35
2021/10/06 00:18:48;;;;;;;0.57;0.10;;;;;;;26.73;36.12;96463.44;5029380;28;20047;-34
2021/10/06 00:21:14;;;;;;;0.10;0.10;;;;;;;26.74;36.16;96467.78;5026293;28;20032;-35
2021/10/06 00:23:39;;;;;;;0.00;0.00;;;;;;;26.73;36.15;96469.56;5027222;28;20029;-32
2021/10/06 00:26:05;;;;;;;0.10;0.10;;;;;;;26.73;36.18;96468.69;5018680;28;20018;-39
2021/10/06 00:28:31;;;;;;;0.10;0.03;;;;;;;26.72;36.11;96472.28;5030090;28;20025;-34
2021/10/06 00:30:57;;;;;;;0.22;0.20;;;;;;;26.72;36.18;96467.88;5025936;28;20818;-34
2021/10/06 00:33:25;;;;;;;0.20;0.20;;;;;;;26.73;36.16;96471.31;5029494;28;20700;-33
2021/10/06 00:35:50;;;;;;;0.57;0.30;;;;;;;26.72;36.23;96474.91;5028357;28;20048;-38
2021/10/06 00:38:16;;;;;;;0.40;0.10;;;;;;;26.73;36.25;96476.59;5026826;28;20616;-34
2021/10/06 00:40:41;;;;;;;0.10;0.10;;;;;;;26.73;36.14;96476.59;5030264;28;20033;-35
2021/10/06 00:43:06;;;;;;;0.10;0.10;;;;;;;26.72;36.22;96480.16;5027699;28;20373;-39
2021/10/06 00:45:32;;;;;;;0.10;0.10;;;;;;;26.70;36.18;96482.88;5028921;28;20024;-37
2021/10/06 00:47:57;;;;;;;0.10;0.10;;;;;;;26.71;36.05;96486.38;5026915;28;20009;-35
2021/10/06 00:50:23;;;;;;;0.03;0.03;;;;;;;26.71;36.14;96483.75;5013305;28;20017;-34
2021/10/06 00:52:48;;;;;;;0.10;0.10;;;;;;;26.71;36.04;96483.75;5028737;28;20087;-37
2021/10/06 00:55:14;;;;;;;0.00;0.00;;;;;;;26.70;36.17;96471.53;5034911;28;21011;-36
2021/10/06 00:57:39;;;;;;;0.10;0.08;;;;;;;26.70;36.14;96477.63;4998695;28;20028;-34
2021/10/06 01:00:05;;;;;;;0.00;0.00;;;;;;;26.70;36.02;96475.00;5029129;28;20028;-40
2021/10/06 01:02:31;;;;;;;0.00;0.00;;;;;;;26.70;36.17;96476.81;4997974;28;20036;-37
2021/10/06 01:04:56;;;;;;;0.10;0.10;;;;;;;26.70;36.09;96476.81;5034636;28;20022;-35
2021/10/06 01:07:22;;;;;;;0.10;0.10;;;;;;;26.70;36.24;96477.63;5025986;28;20079;-34
2021/10/06 01:09:47;;;;;;;0.15;0.10;;;;;;;26.70;36.01;96466.28;5032649;28;20025;-35
2021/10/06 01:12:12;;;;;;;0.10;0.10;;;;;;;26.70;36.17;96471.53;5014803;28;20041;-34
2021/10/06 01:14:38;;;;;;;0.00;0.00;;;;;;;26.69;36.07;96475.94;5028981;28;20032;-31
2021/10/06 01:17:03;;;;;;;0.10;0.10;;;;;;;26.69;35.98;96483.81;5027753;28;20087;-38
2021/10/06 01:19:30;;;;;;;0.00;0.00;;;;;;;26.69;36.10;96477.75;5015158;28;20037;-32
2021/10/06 01:21:56;;;;;;;0.15;0.10;;;;;;;26.69;36.04;96475.13;5016957;28;20115;-39
2021/10/06 01:24:22;;;;;;;0.13;0.10;;;;;;;26.69;36.06;96472.50;5033340;28;20029;-32
2021/10/06 01:26:47;;;;;;;0.10;0.10;;;;;;;26.69;36.00;96477.75;5029373;28;20029;-36
2021/10/06 01:29:14;;;;;;;0.10;0.10;;;;;;;26.69;35.98;96480.38;5030516;28;20029;-35
2021/10/06 01:31:41;;;;;;;0.00;0.00;;;;;;;26.68;36.12;96470.78;5031028;28;20029;-39
2021/10/06 01:34:07;;;;;;;0.17;0.17;;;;;;;26.67;36.09;96466.47;5031099;28;20467;-37
2021/10/06 01:36:32;;;;;;;0.30;0.20;;;;;;;26.66;36.04;96462.16;5032173;28;20031;-34
2021/10/06 01:38:58;;;;;;;0.10;0.10;;;;;;;26.67;36.21;96463.84;5016788;28;20036;-37
2021/10/06 01:41:23;;;;;;;0.20;0.10;;;;;;;26.65;36.04;96463.09;5030841;28;20550;-31
2021/10/06 01:43:49;;;;;;;0.00;0.00;;;;;;;26.66;36.14;96477.94;5018470;28;20056;-36
2021/10/06 01:46:16;;;;;;;0.10;0.10;;;;;;;26.66;36.06;96475.28;5031372;28;20029;-31
2021/10/06 01:48:42;;;;;;;0.55;0.10;;;;;;;26.64;36.05;96488.53;5034980;28;20360;-37
2021/10/06 01:51:07;;;;;;;0.40;0.15;;;;;;;26.65;36.08;96484.13;5032060;28;20036;-31
2021/10/06 01:53:37;;;;;;;0.17;0.17;;;;;;;26.64;36.00;96490.31;4999722;28;20025;-33
2021/10/06 01:56:03;;;;;;;0.25;0.10;;;;;;;26.65;36.16;96494.63;5018188;28;20024;-35
2021/10/06 01:58:28;;;;;;;0.10;0.10;;;;;;;26.64;36.07;96504.31;5030372;28;20030;-35
2021/10/06 02:00:54;;;;;;;0.10;0.10;;;;;;;26.65;36.06;96507.78;5032982;28;20079;-35
2021/10/06 02:03:19;;;;;;;0.10;0.10;;;;;;;26.63;36.11;96510.50;5031560;28;20029;-34
2021/10/06 02:05:44;;;;;;;0.10;0.10;;;;;;;26.63;36.02;96507.88;5029533;28;20029;-37
2021/10/06 02:08:14;;;;;;;0.10;0.10;;;;;;;26.64;36.12;96511.31;5028183;28;20075;-37
2021/10/06 02:10:39;;;;;;;0.10;0.10;;;;;;;26.63;36.07;96509.66;5030883;28;20035;-34
2021/10/06 02:13:05;;;;;;;0.00;0.00;;;;;;;26.64;36.09;96519.22;5030592;28;20017;-36
2021/10/06 02:15:30;;;;;;;0.10;0.10;;;;;;;26.62;36.05;96516.69;5029927;28;20057;-37
2021/10/06 02:17:55;;;;;;;0.03;0.03;;;;;;;26.63;36.06;96512.28;5029918;28;20083;-34
2021/10/06 02:20:22;;;;;;;0.10;0.10;;;;;;;26.63;36.07;96514.91;5035512;28;20037;-35
2021/10/06 02:22:48;;;;;;;0.10;0.10;;;;;;;26.62;35.89;96521.97;5019897;28;20043;-33
2021/10/06 02:25:13;;;;;;;0.10;0.10;;;;;;;26.61;36.00;96517.63;5030142;28;20032;-33
2021/10/06 02:27:38;;;;;;;0.20;0.13;;;;;;;26.62;35.99;96524.59;5030198;28;20032;-31
2021/10/06 02:30:05;;;;;;;0.00;0.00;;;;;;;26.61;35.89;96525.50;5030741;28;20025;-35
2021/10/06 02:32:30;;;;;;;0.10;0.10;;;;;;;26.61;36.08;96531.63;5030299;28;20028;-31
2021/10/06 02:34:55;;;;;;;0.38;0.10;;;;;;;26.61;36.05;96523.72;5028345;28;20407;-37
2021/10/06 02:37:21;;;;;;;0.47;0.20;;;;;;;26.61;35.93;96525.50;5032134;28;20037;-30
2021/10/06 02:39:46;;;;;;;0.10;0.10;;;;;;;26.59;35.90;96525.59;5029892;28;20029;-35
2021/10/06 02:42:12;;;;;;;0.00;0.00;;;;;;;26.60;36.11;96532.56;5013561;28;20048;-37
2021/10/06 02:44:37;;;;;;;0.10;0.05;;;;;;;26.61;35.97;96531.63;5029224;28;20256;-34
2021/10/06 02:47:03;;;;;;;0.25;0.20;;;;;;;26.61;35.99;96530.75;5028504;28;20013;-33
2021/10/06 02:49:29;;;;;;;0.15;0.10;;;;;;;26.59;35.93;96533.47;5030088;28;20036;-38
2021/10/06 02:51:54;;;;;;;0.13;0.13;;;;;;;26.60;36.02;96536.97;5029218;28;20071;-34
2021/10/06 02:54:20;;;;;;;0.10;0.10;;;;;;;26.58;35.96;96537.03;5033457;28;20029;-36
2021/10/06 02:56:45;;;;;;;0.40;0.10;;;;;;;26.58;36.12;96544.94;5029764;28;20029;-35
2021/10/06 02:59:10;;;;;;;0.10;0.10;;;;;;;26.59;36.05;96549.25;5028034;28;20036;-36
2021/10/06 03:01:36;;;;;;;0.00;0.00;;;;;;;26.58;35.99;96547.56;5027854;28;20101;-33
2021/10/06 03:04:01;;;;;;;0.03;0.00;;;;;;;26.57;36.08;96553.75;5029978;28;20699;-34
2021/10/06 03:06:27;;;;;;;0.00;0.00;;;;;;;26.57;36.04;96551.13;5030407;28;20025;-34
2021/10/06 03:08:52;;;;;;;0.00;0.00;;;;;;;26.57;35.94;96556.38;5030774;28;20025;-35
2021/10/06 03:11:17;;;;;;;0.10;0.10;;;;;;;26.57;36.06;96550.28;5029714;28;20026;-32
2021/10/06 03:13:43;;;;;;;0.10;0.10;;;;;;;26.57;35.97;96551.13;5030925;28;20318;-35
2021/10/06 03:16:08;;;;;;;0.00;0.00;;;;;;;26.57;35.97;96551.13;5030138;28;20443;-36
2021/10/06 03:18:34;;;;;;;0.00;0.00;;;;;;;26.57;35.96;96556.38;5028645;28;20021;-37
2021/10/06 03:20:59;;;;;;;0.00;0.00;;;;;;;26.57;36.08;96553.75;5028131;28;20098;-34
2021/10/06 03:23:24;;;;;;;0.00;0.00;;;;;;;26.56;35.97;96559.97;5028339;28;20503;-35
2021/10/06 03:25:50;;;;;;;0.38;0.10;;;;;;;26.57;36.06;96561.66;5026725;28;20380;-35
2021/10/06 03:28:15;;;;;;;0.10;0.10;;;;;;;26.55;36.04;96563.50;5028063;28;20056;-32
2021/10/06 03:30:41;;;;;;;0.10;0.10;;;;;;;26.56;36.05;96575.72;5030525;28;20029;-31
2021/10/06 03:33:06;;;;;;;0.10;0.10;;;;;;;26.56;35.89;96574.88;5028733;28;20147;-35
2021/10/06 03:35:32;;;;;;;0.10;0.10;;;;;;;26.56;36.06;96570.47;5008141;28;20666;-33
2021/10/06 03:37:57;;;;;;;0.10;0.10;;;;;;;26.55;35.95;96574.00;5025546;28;20436;-37
2021/10/06 03:40:22;;;;;;;0.00;0.00;;;;;;;26.55;36.03;96573.19;5027831;28;20062;-37
2021/10/06 03:42:48;;;;;;;0.10;0.10;;;;;;;26.55;36.03;96576.63;5013729;28;20431;-37
2021/10/06 03:45:14;;;;;;;0.10;0.10;;;;;;;26.54;35.99;96580.22;5027210;28;20684;-29
2021/10/06 03:47:39;;;;;;;0.05;0.05;;;;;;;26.54;36.03;96574.97;5028687;28;20406;-37
2021/10/06 03:50:05;;;;;;;0.10;0.10;;;;;;;26.54;35.91;96576.75;5027494;28;20033;-32
2021/10/06 03:52:31;;;;;;;0.20;0.10;;;;;;;26.53;36.01;96586.41;5017886;28;20031;-34
2021/10/06 03:54:56;;;;;;;0.10;0.10;;;;;;;26.53;36.03;96586.41;5024331;28;20021;-34
2021/10/06 03:57:22;;;;;;;0.28;0.20;;;;;;;26.53;35.93;96586.41;5029227;28;20398;-35
2021/10/06 03:59:47;;;;;;;0.52;0.10;;;;;;;26.54;35.97;96587.28;5025925;28;20098;-38
2021/10/06 04:02:12;;;;;;;0.00;0.00;;;;;;;26.52;35.87;96587.34;5026850;28;20040;-31
2021/10/06 04:04:38;;;;;;;0.10;0.10;;;;;;;26.52;35.99;96592.63;5029583;28;20122;-34
2021/10/06 04:07:03;;;;;;;0.32;0.10;;;;;;;26.52;35.91;96595.25;5027858;28;20025;-32
2021/10/06 04:09:29;;;;;;;0.20;0.10;;;;;;;26.53;35.87;96607.44;5028892;28;20025;-35
2021/10/06 04:11:54;;;;;;;0.52;0.10;;;;;;;26.52;35.86;96602.25;5025230;28;20364;-36
2021/10/06 04:14:19;;;;;;;0.10;0.10;;;;;;;26.51;35.87;96614.56;5029048;28;20021;-35
2021/10/06 04:16:45;;;;;;;0.30;0.10;;;;;;;26.52;35.91;96616.25;5001179;28;20498;-34
2021/10/06 04:19:10;;;;;;;0.03;0.03;;;;;;;26.51;35.92;96617.22;5030158;28;20028;-37
2021/10/06 04:21:36;;;;;;;0.10;0.10;;;;;;;26.51;35.86;96618.97;5026560;28;20086;-32
2021/10/06 04:24:01;;;;;;;0.00;0.00;;;;;;;26.51;35.84;96619.84;5010678;28;20033;-33
2021/10/06 04:26:27;;;;;;;0.10;0.10;;;;;;;26.51;35.85;96625.09;5027049;28;20079;-37
2021/10/06 04:28:52;;;;;;;0.03;0.03;;;;;;;26.51;35.90;96618.97;5030708;28;20036;-34
2021/10/06 04:31:19;;;;;;;0.20;0.20;;;;;;;26.50;35.87;96617.28;5024960;28;20025;-33
2021/10/06 04:33:47;;;;;;;0.00;0.00;;;;;;;26.50;35.90;96618.13;5012290;28;20021;-35
2021/10/06 04:36:13;;;;;;;0.22;0.08;;;;;;;26.49;36.01;96621.69;5028925;28;20033;-36
2021/10/06 04:38:38;;;;;;;0.22;0.10;;;;;;;26.49;35.90;96621.69;5030928;28;20040;-31
2021/10/06 04:41:04;;;;;;;0.10;0.10;;;;;;;26.49;35.90;96624.31;5012426;28;20540;-36
2021/10/06 04:43:29;;;;;;;0.10;0.10;;;;;;;26.49;35.78;96621.69;5029565;28;20033;-32
2021/10/06 04:45:54;;;;;;;0.30;0.10;;;;;;;26.49;35.87;96632.19;5015757;28;20032;-37
2021/10/06 04:48:20;;;;;;;0.15;0.15;;;;;;;26.48;35.78;96628.72;5029477;28;20033;-36
2021/10/06 04:50:45;;;;;;;0.10;0.03;;;;;;;26.48;35.88;96630.50;5029210;28;20032;-38
2021/10/06 04:53:11;;;;;;;0.10;0.10;;;;;;;26.47;35.96;96631.47;5031816;28;20094;-37
2021/10/06 04:55:37;;;;;;;0.13;0.08;;;;;;;26.47;35.92;96629.66;5000517;28;20025;-37
2021/10/06 04:58:02;;;;;;;0.10;0.10;;;;;;;26.47;35.81;96626.22;5028729;28;20083;-35
2021/10/06 05:00:28;;;;;;;0.13;0.10;;;;;;;26.46;35.86;96627.13;5030233;28;20694;-36
2021/10/06 05:02:53;;;;;;;0.35;0.13;;;;;;;26.47;35.81;96641.97;5017331;28;20537;-34
2021/10/06 05:05:19;;;;;;;0.08;0.08;;;;;;;26.46;35.87;96637.63;5027557;28;20033;-31
2021/10/06 05:07:44;;;;;;;0.30;0.20;;;;;;;26.45;35.84;96646.44;5026522;28;20463;-37
2021/10/06 05:10:09;;;;;;;0.20;0.10;;;;;;;26.46;35.88;96656.03;5026363;28;20021;-37
2021/10/06 05:12:35;;;;;;;0.20;0.10;;;;;;;26.46;35.78;96664.75;5023497;28;20436;-33
2021/10/06 05:15:00;;;;;;;1.00;0.20;;;;;;;26.45;35.87;96667.47;5028660;28;20056;-34
2021/10/06 05:17:26;;;;;;;0.20;0.20;;;;;;;26.43;35.80;96664.09;5027455;28;20422;-36
2021/10/06 05:19:51;;;;;;;0.13;0.10;;;;;;;26.43;35.79;96671.97;5030508;28;20032;-37
2021/10/06 05:22:17;;;;;;;0.63;0.30;;;;;;;26.42;35.75;96668.50;5026091;28;20025;-31
2021/10/06 05:24:43;;;;;;;0.25;0.20;;;;;;;26.42;35.89;96678.16;5028310;28;20060;-33
2021/10/06 05:27:08;;;;;;;0.43;0.20;;;;;;;26.42;35.78;96670.28;5027526;28;20029;-35
2021/10/06 05:29:34;;;;;;;0.20;0.20;;;;;;;26.42;35.76;96670.28;5028007;28;20152;-35
2021/10/06 05:32:03;;;;;;;0.20;0.20;;;;;;;26.42;35.82;96676.38;5011826;28;20028;-35
2021/10/06 05:34:29;;;;;;;0.38;0.20;;;;;;;26.41;35.80;96681.72;5025337;28;20104;-34
2021/10/06 05:36:55;;;;;;;0.03;0.03;;;;;;;26.42;35.73;96686.03;5027679;28;20029;-30
2021/10/06 05:39:20;;;;;;;0.50;0.28;;;;;;;26.42;35.80;96683.41;5030120;28;20115;-34
2021/10/06 05:41:46;;;;;;;0.10;0.10;;;;;;;26.42;35.72;96688.66;5028055;28;20615;-34
2021/10/06 05:44:11;;;;;;;0.10;0.10;;;;;;;26.41;35.85;96684.34;5029326;28;20052;-33
2021/10/06 05:46:37;;;;;;;0.00;0.00;;;;;;;26.41;35.86;96692.22;5025511;28;20029;-30
2021/10/06 05:49:02;;;;;;;0.28;0.10;;;;;;;26.41;35.76;96689.59;5031469;28;20230;-37
2021/10/06 05:51:27;;;;;;;0.10;0.10;;;;;;;26.41;35.86;96697.47;5032083;28;20577;-32
2021/10/06 05:53:53;;;;;;;0.10;0.10;;;;;;;26.41;35.81;96698.34;5031464;28;20040;-32
2021/10/06 05:56:18;;;;;;;0.17;0.17;;;;;;;26.41;35.76;96702.75;5033396;28;20030;-33
2021/10/06 05:58:44;;;;;;;0.17;0.10;;;;;;;26.39;35.78;96694.94;5026008;28;20029;-34
2021/10/06 06:01:09;;;;;;;0.00;0.00;;;;;;;26.41;35.80;96702.75;5030044;28;20033;-35
2021/10/06 06:03:34;;;;;;;0.70;0.10;;;;;;;26.40;35.69;96695.78;5032611;28;20893;-35
2021/10/06 06:06:00;;;;;;;0.10;0.10;;;;;;;26.40;35.77;96699.28;5029104;28;20388;-39
2021/10/06 06:08:25;;;;;;;0.10;0.10;;;;;;;26.39;35.91;96705.44;5012002;28;20033;-35
2021/10/06 06:10:51;;;;;;;0.17;0.13;;;;;;;26.38;35.88;96705.56;5033982;28;20021;-36
2021/10/06 06:13:16;;;;;;;0.20;0.20;;;;;;;26.38;35.81;96714.28;5032101;28;20021;-35
2021/10/06 06:15:41;;;;;;;0.10;0.10;;;;;;;26.38;35.67;96711.66;5027247;28;20317;-30
2021/10/06 06:18:07;;;;;;;0.40;0.20;;;;;;;26.38;35.74;96708.19;5010236;28;20032;-38
2021/10/06 06:20:32;;;;;;;0.20;0.10;;;;;;;26.38;35.86;96705.56;5028229;28;20031;-36
2021/10/06 06:22:58;;;;;;;0.28;0.13;;;;;;;26.37;35.95;96709.97;5027172;28;20037;-34
2021/10/06 06:25:23;;;;;;;0.20;0.20;;;;;;;26.38;35.89;96718.69;5029399;28;20033;-34
2021/10/06 06:27:48;;;;;;;0.13;0.10;;;;;;;26.39;35.76;96720.38;5030696;28;20026;-33
2021/10/06 06:30:14;;;;;;;0.15;0.15;;;;;;;26.38;35.83;96723.94;5028724;28;20025;-36
2021/10/06 06:32:41;;;;;;;0.32;0.20;;;;;;;26.38;35.90;96729.22;5030840;28;20602;-37
2021/10/06 06:35:07;;;;;;;0.10;0.10;;;;;;;26.38;35.86;96730.03;5028816;28;20031;-37
2021/10/06 06:37:32;;;;;;;0.25;0.10;;;;;;;26.40;35.92;96732.59;5010419;28;20120;-31
2021/10/06 06:39:58;;;;;;;0.08;0.08;;;;;;;26.40;35.86;96745.72;5029002;28;20032;-33
2021/10/06 06:42:23;;;;;;;0.43;0.20;;;;;;;26.40;35.76;96743.94;5027855;28;20359;-33
2021/10/06 06:44:48;;;;;;;0.20;0.15;;;;;;;26.40;35.86;96738.69;5015974;28;20028;-34
2021/10/06 06:47:14;;;;;;;0.20;0.10;;;;;;;26.42;35.96;96746.47;5032218;28;20350;-33
2021/10/06 06:49:39;;;;;;;0.20;0.10;;;;;;;26.42;35.88;96744.69;5031112;28;20647;-37
2021/10/06 06:52:05;;;;;;;0.10;0.10;;;;;;;26.44;35.81;96749.88;5024822;28;20130;-30
2021/10/06 06:54:30;;;;;;;0.38;0.10;;;;;;;26.45;35.91;96752.41;5018125;28;20052;-35
2021/10/06 06:56:56;;;;;;;0.10;0.10;;;;;;;26.46;36.01;96755.88;5030682;28;20041;-33
2021/10/06 06:59:21;;;;;;;0.17;0.10;;;;;;;26.47;35.96;96760.22;5031565;28;20679;-34
2021/10/06 07:01:47;;;;;;;0.10;0.10;;;;;;;26.46;35.90;96763.75;5027625;28;20033;-34
2021/10/06 07:04:13;;;;;;;0.22;0.10;;;;;;;26.47;35.96;96760.22;5014646;28;20607;-36
2021/10/06 07:06:39;;;;;;;0.20;0.20;;;;;;;26.48;35.90;96762.72;5025804;28;20103;-32
2021/10/06 07:09:05;;;;;;;0.10;0.10;;;;;;;26.47;35.92;96761.03;5029959;28;20025;-33
2021/10/06 07:11:30;;;;;;;0.13;0.10;;;;;;;26.49;35.87;96768.84;5026380;28;20029;-32
2021/10/06 07:13:56;;;;;;;0.10;0.10;;;;;;;26.50;35.86;96770.53;5027776;28;20403;-32
2021/10/06 07:16:21;;;;;;;0.17;0.17;;;;;;;26.47;35.87;96765.47;5027476;28;20029;-31
2021/10/06 07:18:47;;;;;;;0.10;0.10;;;;;;;26.51;35.98;96772.25;5028013;28;20428;-35
2021/10/06 07:21:12;;;;;;;0.28;0.10;;;;;;;26.51;35.88;96761.75;5026537;28;20145;-34
2021/10/06 07:23:38;;;;;;;0.20;0.15;;;;;;;26.51;36.00;96774.88;5032595;28;20032;-34
2021/10/06 07:26:03;;;;;;;0.43;0.10;;;;;;;26.52;35.90;96773.06;5028419;28;20029;-37
2021/10/06 07:28:29;;;;;;;0.08;0.08;;;;;;;26.52;35.91;96771.31;5028608;28;20814;-35
2021/10/06 07:30:54;;;;;;;0.10;0.10;;;;;;;26.53;35.97;96775.63;5010740;28;20021;-36
2021/10/06 07:33:19;;;;;;;0.50;0.20;;;;;;;26.53;35.84;96769.50;5027337;28;20294;-32
2021/10/06 07:35:45;;;;;;;0.22;0.10;;;;;;;26.54;36.02;96782.56;5025572;28;20032;-34
2021/10/06 07:38:10;;;;;;;0.10;0.10;;;;;;;26.54;36.12;96779.94;5029885;28;20479;-37
2021/10/06 07:40:36;;;;;;;0.10;0.10;;;;;;;26.56;35.97;96790.38;5014907;28;20032;-35
2021/10/06 07:43:01;;;;;;;0.10;0.10;;;;;;;26.54;35.95;96787.81;5030202;28;20036;-34
2021/10/06 07:45:26;;;;;;;0.10;0.10;;;;;;;26.56;35.97;96791.22;5035057;28;20060;-34
2021/10/06 07:47:52;;;;;;;0.55;0.13;;;;;;;26.57;35.89;96789.44;5013432;28;20023;-32
2021/10/06 07:50:17;;;;;;;0.00;0.00;;;;;;;26.57;36.06;96792.06;5029819;28;20181;-33
2021/10/06 07:52:43;;;;;;;0.00;0.00;;;;;;;26.57;36.00;96798.16;5002877;28;20079;-36
2021/10/06 07:55:09;;;;;;;0.10;0.10;;;;;;;26.58;36.10;96809.53;5029122;28;20080;-36
2021/10/06 07:57:35;;;;;;;0.10;0.10;;;;;;;26.58;36.03;96809.53;5030706;28;20024;-30
2021/10/06 08:00:01;;;;;;;0.30;0.10;;;;;;;26.60;36.02;96811.16;5012697;28;20024;-34
2021/10/06 08:02:26;;;;;;;0.93;0.20;;;;;;;26.59;36.10;96812.06;5028523;28;20025;-34
2021/10/06 08:04:52;;;;;;;0.10;0.10;;;;;;;26.60;36.08;96816.41;5013012;28;20048;-32
2021/10/06 08:07:17;;;;;;;0.00;0.00;;;;;;;26.59;35.97;96817.31;5027377;28;20041;-33
2021/10/06 08:09:43;;;;;;;0.30;0.20;;;;;;;26.61;36.13;96823.34;5028618;28;20029;-35
2021/10/06 08:12:08;;;;;;;0.25;0.10;;;;;;;26.60;35.99;96821.66;5028593;28;20033;-39
2021/10/06 08:14:34;;;;;;;0.40;0.20;;;;;;;26.61;36.13;96825.97;5032608;28;20033;-34
2021/10/06 08:17:00;;;;;;;0.10;0.10;;;;;;;26.61;36.04;96831.22;5026285;28;20159;-33
2021/10/06 08:19:25;;;;;;;0.25;0.20;;;;;;;26.60;36.20;96839.19;5027710;28;21130;-34
2021/10/06 08:21:50;;;;;;;0.10;0.10;;;;;;;26.60;36.13;96840.06;5011258;28;20029;-36
2021/10/06 08:24:16;;;;;;;0.17;0.10;;;;;;;26.61;36.08;96847.00;5029191;28;20024;-36
2021/10/06 08:26:42;;;;;;;0.60;0.28;;;;;;;26.61;36.13;96851.41;4999961;28;20036;-36
2021/10/06 08:29:07;;;;;;;0.32;0.20;;;;;;;26.62;36.08;96855.75;5028374;28;20029;-32
2021/10/06 08:31:32;;;;;;;0.10;0.10;;;;;;;26.61;36.12;96857.53;5015511;28;20025;-35
2021/10/06 08:33:58;;;;;;;0.10;0.10;;;;;;;26.61;36.12;96868.03;5029023;28;20287;-31
2021/10/06 08:36:23;;;;;;;0.35;0.20;;;;;;;26.61;36.05;96857.53;5025927;28;20024;-38
2021/10/06 08:38:49;;;;;;;0.30;0.20;;;;;;;26.62;36.21;96861.00;5027164;28;20048;-35
2021/10/06 08:41:14;;;;;;;0.30;0.30;;;;;;;26.61;36.10;96869.78;5028235;28;20032;-38
2021/10/06 08:43:40;;;;;;;0.45;0.20;;;;;;;26.61;36.07;96862.78;5027438;28;20427;-34
2021/10/06 08:46:06;;;;;;;0.20;0.10;;;;;;;26.61;36.13;96868.03;5016451;28;20447;-37
2021/10/06 08:48:31;;;;;;;0.22;0.10;;;;;;;26.61;36.08;96868.03;5027309;28;20025;-31
2021/10/06 08:50:57;;;;;;;0.15;0.15;;;;;;;26.61;36.13;96873.28;5028333;28;20035;-32
2021/10/06 08:53:22;;;;;;;0.75;0.20;;;;;;;26.61;36.05;96873.28;5028573;28;20033;-34
2021/10/06 08:55:47;;;;;;;0.10;0.10;;;;;;;26.62;36.14;96874.16;5019906;28;20503;-36
2021/10/06 08:58:13;;;;;;;0.20;0.20;;;;;;;26.61;36.26;96877.69;5024720;28;20032;-30
2021/10/06 09:00:55;;;;;;;0.20;0.10;;;;;;;26.63;36.17;96880.22;5015601;28;20029;-30
2021/10/06 09:03:30;;;;;;;0.20;0.10;;;;;;;26.61;36.25;96881.16;5027540;28;20029;-33
2021/10/06 09:06:14;;;;;;;0.50;0.10;;;;;;;26.61;36.13;96875.91;5028011;28;20036;-33
2021/10/06 09:08:43;;;;;;;0.43;0.10;;;;;;;26.61;36.21;96878.53;5027865;28;20029;-35
2021/10/06 09:11:09;;;;;;;0.38;0.20;;;;;;;26.61;36.30;96883.81;5031300;28;20035;-34
2021/10/06 09:13:40;;;;;;;0.15;0.10;;;;;;;26.61;36.04;96878.53;5029051;28;20028;-35
2021/10/06 09:16:06;;;;;;;0.32;0.30;;;;;;;26.62;36.19;96866.25;5026946;28;20515;-34
2021/10/06 09:18:32;;;;;;;0.22;0.13;;;;;;;26.62;36.07;96871.53;5027764;28;20044;-30
2021/10/06 09:20:59;;;;;;;0.50;0.10;;;;;;;26.63;36.21;96875.84;5029914;28;20217;-37
2021/10/06 09:23:25;;;;;;;0.30;0.20;;;;;;;26.63;36.13;96885.50;5029444;28;20051;-36
2021/10/06 09:26:04;;;;;;;0.32;0.10;;;;;;;26.63;36.08;96886.34;5035182;28;20561;-37
2021/10/06 09:28:34;;;;;;;0.10;0.10;;;;;;;26.63;36.31;96885.50;5020692;28;20048;-33
2021/10/06 09:31:01;;;;;;;0.15;0.10;;;;;;;26.64;36.04;96887.19;5030808;28;20111;-31
2021/10/06 09:33:50;;;;;;;0.30;0.10;;;;;;;26.63;36.18;96875.84;5032250;28;20488;-39
2021/10/06 09:36:17;;;;;;;0.32;0.10;;;;;;;26.64;36.14;96884.56;5031367;28;20025;-34
2021/10/06 09:38:50;;;;;;;0.10;0.10;;;;;;;26.65;36.24;96888.91;5032895;28;20063;-34
2021/10/06 09:41:49;;;;;;;0.10;0.10;;;;;;;26.64;36.14;96876.66;5030928;28;20356;-35
2021/10/06 09:44:21;;;;;;;0.20;0.20;;;;;;;26.65;36.11;96886.28;5008327;28;20159;-30
2021/10/06 09:46:51;;;;;;;;;;;;;;;26.65;36.20;96888.91;5032124;28;20135;-33
2021/10/06 09:49:27;;;;;;;1.30;0.40;;;;;;;26.66;36.18;96893.22;5030505;28;19916;-35
2021/10/06 09:51:55;;;;;;;0.45;0.10;;;;;;;26.65;36.21;96894.16;5031428;28;20052;-33
2021/10/06 09:54:20;;;;;;;0.57;0.20;;;;;;;26.66;36.18;96901.09;5029202;28;20024;-37
2021/10/06 09:56:47;;;;;;;0.10;0.10;;;;;;;26.63;36.25;96899.50;5030849;28;20768;-36
2021/10/06 09:59:13;;;;;;;0.30;0.20;;;;;;;26.64;36.22;96901.19;5030198;28;20039;-36
2021/10/06 10:01:40;;;;;;;0.30;0.17;;;;;;;26.64;36.16;96908.19;5031409;28;21013;-33
2021/10/06 10:04:06;;;;;;;0.20;0.20;;;;;;;26.63;36.17;96904.75;5016322;28;20028;-35
2021/10/06 10:06:32;;;;;;;0.25;0.10;;;;;;;26.66;36.25;96911.63;5041140;28;20024;-32
2021/10/06 10:08:58;;;;;;;0.10;0.10;;;;;;;26.66;36.19;96919.50;5029080;28;20507;-35
2021/10/06 10:11:23;;;;;;;0.25;0.10;;;;;;;26.64;36.16;96921.34;5032235;28;20132;-32
2021/10/06 10:13:49;;;;;;;0.10;0.10;;;;;;;26.65;36.16;96920.44;5033193;28;20479;-36
2021/10/06 10:16:14;;;;;;;0.15;0.10;;;;;;;26.65;36.10;96920.44;5032019;28;20748;-33
2021/10/06 10:18:40;;;;;;;0.10;0.10;;;;;;;26.64;36.09;96922.22;5029695;28;20061;-30
2021/10/06 10:21:05;;;;;;;0.47;0.20;;;;;;;26.65;36.31;96930.94;5019468;28;20032;-37
2021/10/06 10:23:31;;;;;;;0.20;0.20;;;;;;;26.67;36.29;96926.44;5012895;28;20079;-32
2021/10/06 10:25:56;;;;;;;0.32;0.20;;;;;;;26.66;36.22;96928.22;5009532;28;20028;-37
2021/10/06 10:28:23;;;;;;;0.10;0.10;;;;;;;26.67;36.23;96929.06;5024806;28;20025;-37
2021/10/06 10:30:55;;;;;;;0.15;0.10;;;;;;;26.67;36.30;96929.94;5030803;28;20052;-34
2021/10/06 10:33:37;;;;;;;0.22;0.20;;;;;;;26.68;36.25;96938.66;5029555;28;20103;-35
2021/10/06 10:36:03;;;;;;;0.15;0.15;;;;;;;26.68;36.18;96930.75;5031107;28;20116;-38
2021/10/06 10:38:35;;;;;;;0.22;0.10;;;;;;;26.68;36.22;96936.03;5029113;28;20029;-35
2021/10/06 10:41:02;;;;;;;0.57;0.25;;;;;;;26.67;36.21;96932.56;5031284;28;20120;-34
2021/10/06 10:43:31;;;;;;;0.10;0.10;;;;;;;26.69;36.13;96937.75;5012147;28;20024;-35
2021/10/06 10:45:59;;;;;;;0.20;0.10;;;;;;;26.69;36.31;96943.00;5029900;28;20510;-37
2021/10/06 10:48:58;;;;;;;0.20;0.20;;;;;;;26.68;36.15;96947.41;5023780;28;20041;-28
2021/10/06 10:51:43;;;;;;;2.20;0.17;;;;;;;26.69;36.18;96948.25;5025479;28;20044;-33
2021/10/06 10:54:11;;;;;;;0.28;0.10;;;;;;;26.70;36.19;96942.06;5031441;28;20033;-34
2021/10/06 10:56:41;;;;;;;0.13;0.10;;;;;;;26.69;36.14;96948.25;5032467;28;20132;-38
2021/10/06 10:59:08;;;;;;;0.15;0.10;;;;;;;26.69;36.13;96954.34;5030445;28;20021;-33
2021/10/06 11:01:50;;;;;;;0.20;0.20;;;;;;;26.69;36.21;96948.25;5012812;28;20037;-33
2021/10/06 11:04:25;;;;;;;0.25;0.20;;;;;;;26.69;36.13;96948.25;5028322;28;20029;-34
2021/10/06 11:06:53;;;;;;;0.17;0.10;;;;;;;26.69;36.15;96953.50;5025280;28;20139;-37
2021/10/06 11:09:30;;;;;;;0.65;0.10;;;;;;;26.69;36.16;96953.50;5033088;28;20036;-30
2021/10/06 11:12:05;;;;;;;0.30;0.17;;;;;;;26.69;36.19;96954.34;5028958;28;20025;-33
2021/10/06 11:14:41;;;;;;;0.10;0.10;;;;;;;26.70;36.25;96955.19;5031577;28;20503;-35
2021/10/06 11:17:11;;;;;;;0.20;0.10;;;;;;;26.70;35.96;96949.94;5032494;28;20061;-36
2021/10/06 11:19:57;;;;;;;0.20;0.20;;;;;;;26.69;36.42;96943.81;5028840;28;20574;-31
2021/10/06 11:22:22;;;;;;;0.15;0.13;;;;;;;26.69;36.09;96935.94;5028641;28;20045;-39
2021/10/06 11:24:51;;;;;;;0.40;0.20;;;;;;;26.69;36.27;96935.13;5028330;28;20110;-34
2021/10/06 11:27:16;;;;;;;0.10;0.10;;;;;;;26.70;36.27;96944.69;5023350;28;20105;-37
2021/10/06 11:29:45;;;;;;;0.17;0.17;;;;;;;26.69;36.27;96938.56;5027667;28;20037;-35
2021/10/06 11:32:11;;;;;;;0.43;0.20;;;;;;;26.70;36.17;96944.69;5030491;28;20052;-36